Terminal Aerodrome Forecast
Issued by NWS Tampa Bay Area, FL

Home | Current Version | Previous Version | Text Only | Print | Product List | Glossary On
Versions: 1 2 3 4 5 6 7 8 9 10 11 12 13 14
000
FTUS42 KTBW 051737
TAFSRQ
TAF
KSRQ 051737Z 0518/0618 09013G20KT P6SM VCSH SCT025 BKN050
     FM060100 08008KT P6SM SCT050 BKN250
     FM060600 VRB06KT P6SM SCT050 BKN250
     FM061700 33008KT P6SM FEW050 SCT250=

USA.gov is the U.S. government's official web portal to all federal, state and local government web resources and services.